Time;durP1;ratioP1;P1;durP2;ratioP2;P2;SDS_P1;SDS_P2;PMS_P1;PMS_P2;Temp;Humidity;BMP_temperature;BMP_pressure;BME280_temperature;BME280_humidity;BME280_pressure;Samples;Min_cycle;Max_cycle;Signal;HPM_P1;HPM_P2
2023/07/22 00:01:24;;;;;;;4.57;2.10;;;15.70;94.20;;;;;;4985749;28;20030;-74
2023/07/22 00:03:49;;;;;;;2.80;1.48;;;15.60;94.40;;;;;;4990256;28;20022;-73
2023/07/22 00:06:15;;;;;;;3.15;1.60;;;15.60;94.40;;;;;;4989335;28;20023;-73
2023/07/22 00:08:41;;;;;;;1.58;1.13;;;15.60;94.40;;;;;;4989764;28;20112;-73
2023/07/22 00:11:07;;;;;;;3.15;1.30;;;15.60;94.50;;;;;;4987659;28;20114;-74
2023/07/22 00:13:33;;;;;;;2.83;1.58;;;15.50;94.40;;;;;;4988637;28;20792;-74
2023/07/22 00:16:00;;;;;;;3.90;1.48;;;15.50;94.50;;;;;;4993016;28;20053;-73
2023/07/22 00:18:27;;;;;;;2.78;1.50;;;15.50;94.60;;;;;;4987698;28;20080;-73
2023/07/22 00:20:54;;;;;;;2.28;1.17;;;15.50;94.60;;;;;;4987928;28;20022;-73
2023/07/22 00:23:22;;;;;;;3.85;1.40;;;15.50;94.80;;;;;;4989813;28;20034;-73
2023/07/22 00:25:49;;;;;;;2.42;1.30;;;15.40;94.70;;;;;;4987615;28;20048;-73
2023/07/22 00:28:14;;;;;;;2.53;1.55;;;15.50;94.80;;;;;;4993471;28;20031;-73
2023/07/22 00:30:40;;;;;;;3.75;1.30;;;15.40;94.80;;;;;;4989595;28;20050;-73
2023/07/22 00:33:05;;;;;;;2.90;1.50;;;15.40;94.80;;;;;;4991111;28;20075;-74
2023/07/22 00:35:31;;;;;;;5.28;1.80;;;15.40;94.90;;;;;;4991272;28;20031;-73
2023/07/22 00:37:58;;;;;;;2.28;1.30;;;15.40;94.90;;;;;;4987681;28;20541;-74
2023/07/22 00:40:23;;;;;;;2.67;1.30;;;15.40;95.00;;;;;;4984373;28;20465;-74
2023/07/22 00:42:49;;;;;;;4.47;1.63;;;15.40;95.00;;;;;;4985695;28;20022;-74
2023/07/22 00:45:15;;;;;;;3.05;1.48;;;15.40;95.10;;;;;;4986579;28;20473;-73
2023/07/22 00:47:41;;;;;;;2.40;1.40;;;15.40;95.10;;;;;;4993398;28;20029;-74
2023/07/22 00:50:08;;;;;;;2.83;1.48;;;15.30;95.10;;;;;;4986644;28;20377;-73
2023/07/22 00:52:38;;;;;;;2.95;1.55;;;15.40;95.20;;;;;;4989840;28;20019;-73
2023/07/22 00:55:05;;;;;;;4.13;1.65;;;15.30;95.20;;;;;;4984631;28;20034;-74
2023/07/22 00:57:30;;;;;;;2.80;1.52;;;15.30;95.30;;;;;;4987460;28;20034;-74
2023/07/22 00:59:56;;;;;;;2.55;1.63;;;15.30;95.30;;;;;;4990240;28;20054;-74
2023/07/22 01:02:23;;;;;;;3.20;1.73;;;15.30;95.30;;;;;;4988380;28;20389;-74
2023/07/22 01:04:50;;;;;;;3.33;1.65;;;15.30;95.30;;;;;;4985800;28;20027;-74
2023/07/22 01:07:15;;;;;;;2.30;1.30;;;15.20;95.40;;;;;;4984141;28;20054;-74
2023/07/22 01:09:42;;;;;;;4.55;1.70;;;15.20;95.50;;;;;;4989570;28;20061;-74
2023/07/22 01:12:09;;;;;;;2.70;1.52;;;15.20;95.50;;;;;;4986888;28;20026;-74
2023/07/22 01:14:36;;;;;;;4.82;1.63;;;15.20;95.60;;;;;;4995006;28;20023;-74
2023/07/22 01:17:03;;;;;;;2.80;1.60;;;15.20;95.70;;;;;;4989656;28;20041;-74
2023/07/22 01:19:30;;;;;;;3.97;1.88;;;15.20;95.70;;;;;;4986971;28;20089;-74
2023/07/22 01:22:00;;;;;;;2.95;1.48;;;15.10;95.70;;;;;;4990889;28;20097;-74
2023/07/22 01:24:27;;;;;;;2.85;1.50;;;15.10;95.90;;;;;;4985750;28;20030;-75
2023/07/22 01:26:52;;;;;;;4.75;1.70;;;15.10;95.90;;;;;;4988865;28;20019;-75
2023/07/22 01:29:18;;;;;;;2.40;1.70;;;15.10;95.90;;;;;;4972353;28;20118;-75
2023/07/22 01:31:47;;;;;;;2.60;1.40;;;15.10;96.00;;;;;;4979601;28;20443;-74
2023/07/22 01:34:12;;;;;;;3.65;1.30;;;15.10;96.00;;;;;;4986830;28;20105;-75
2023/07/22 01:36:38;;;;;;;4.97;1.80;;;15.10;96.00;;;;;;4989203;28;20419;-75
2023/07/22 01:39:05;;;;;;;3.95;1.77;;;15.10;96.00;;;;;;4982597;28;20030;-74
2023/07/22 01:41:31;;;;;;;4.07;1.88;;;15.10;96.10;;;;;;4988177;28;20018;-74
2023/07/22 01:43:57;;;;;;;2.30;1.48;;;15.10;96.10;;;;;;4974970;28;20157;-75
2023/07/22 01:46:23;;;;;;;5.25;1.50;;;15.10;96.20;;;;;;4984714;28;20390;-75
2023/07/22 01:48:48;;;;;;;3.85;2.08;;;15.10;96.20;;;;;;4992597;28;20437;-74
2023/07/22 01:51:14;;;;;;;2.33;1.52;;;15.10;96.30;;;;;;4985669;28;20468;-74
2023/07/22 01:53:39;;;;;;;2.92;1.73;;;15.00;96.40;;;;;;4980980;28;20497;-74
2023/07/22 01:56:05;;;;;;;3.97;1.48;;;15.00;96.50;;;;;;4983458;28;20413;-74
2023/07/22 01:58:31;;;;;;;2.60;1.60;;;15.00;96.50;;;;;;4987145;28;20036;-74
2023/07/22 02:00:56;;;;;;;3.05;1.42;;;15.00;96.60;;;;;;4987489;28;20092;-74
2023/07/22 02:03:22;;;;;;;4.82;1.63;;;14.90;96.60;;;;;;4986340;28;20178;-74
2023/07/22 02:05:48;;;;;;;3.58;1.73;;;14.90;96.70;;;;;;4985142;28;20041;-75
2023/07/22 02:08:13;;;;;;;2.78;1.30;;;14.90;96.80;;;;;;4992551;28;20027;-75
2023/07/22 02:10:39;;;;;;;3.33;1.58;;;14.90;96.90;;;;;;4990919;28;20465;-74
2023/07/22 02:13:04;;;;;;;2.88;1.50;;;14.90;97.20;;;;;;4992190;28;20034;-75
2023/07/22 02:15:32;;;;;;;3.00;1.77;;;14.80;96.90;;;;;;4992399;28;20438;-75
2023/07/22 02:17:57;;;;;;;3.10;1.60;;;14.80;97.00;;;;;;4992135;28;20034;-75
2023/07/22 02:20:23;;;;;;;4.05;1.75;;;14.80;97.10;;;;;;4989635;28;20546;-74
2023/07/22 02:22:49;;;;;;;4.75;1.73;;;14.80;97.30;;;;;;4991109;28;20033;-74
2023/07/22 02:25:15;;;;;;;5.10;2.03;;;14.80;97.50;;;;;;4992374;28;20026;-74
2023/07/22 02:27:41;;;;;;;3.90;1.73;;;14.70;97.80;;;;;;4992284;28;20026;-75
2023/07/22 02:30:10;;;;;;;3.05;1.90;;;14.70;97.90;;;;;;4985100;28;20041;-74
2023/07/22 02:32:40;;;;;;;3.25;1.90;;;14.70;98.00;;;;;;4987029;28;20484;-74
2023/07/22 02:35:09;;;;;;;2.92;1.55;;;14.70;98.20;;;;;;4984534;28;20078;-74
2023/07/22 02:37:38;;;;;;;2.30;1.50;;;14.70;98.40;;;;;;4990291;28;20096;-74
2023/07/22 02:40:13;;;;;;;3.83;1.42;;;14.60;98.30;;;;;;4980378;28;20050;-74
2023/07/22 02:42:39;;;;;;;3.22;1.95;;;14.60;98.30;;;;;;4987598;28;20027;-74
2023/07/22 02:45:07;;;;;;;2.63;1.50;;;14.60;98.20;;;;;;4983243;28;20026;-74
2023/07/22 02:47:34;;;;;;;3.42;1.40;;;14.60;98.30;;;;;;4984972;28;20026;-74
2023/07/22 02:50:00;;;;;;;3.85;2.10;;;14.50;98.30;;;;;;4987873;28;20027;-74
2023/07/22 02:52:25;;;;;;;2.22;1.50;;;14.50;98.30;;;;;;4988147;28;20094;-74
2023/07/22 02:55:12;;;;;;;3.08;1.38;;;14.50;98.40;;;;;;4983389;28;20065;-74
2023/07/22 02:57:38;;;;;;;2.45;1.50;;;14.50;98.50;;;;;;5003004;28;20393;-74
2023/07/22 03:00:07;;;;;;;4.82;1.85;;;14.50;98.50;;;;;;4987541;28;20034;-75
2023/07/22 03:02:33;;;;;;;4.78;1.75;;;14.40;98.50;;;;;;4994620;28;20062;-74
2023/07/22 03:04:59;;;;;;;2.33;1.38;;;14.40;98.70;;;;;;4997360;28;20072;-74
2023/07/22 03:07:26;;;;;;;3.85;1.92;;;14.40;98.80;;;;;;4987834;28;20038;-74
2023/07/22 03:09:52;;;;;;;3.35;1.58;;;14.40;98.90;;;;;;4992379;28;20029;-73
2023/07/22 03:12:17;;;;;;;2.38;1.45;;;14.40;99.00;;;;;;4991386;28;20030;-74
2023/07/22 03:14:43;;;;;;;3.75;2.17;;;14.40;99.00;;;;;;4994370;28;20033;-74
2023/07/22 03:17:09;;;;;;;3.55;1.83;;;14.40;99.10;;;;;;4988212;28;20037;-74
2023/07/22 03:19:35;;;;;;;4.05;1.70;;;14.40;99.10;;;;;;4989704;28;20438;-73
2023/07/22 03:22:02;;;;;;;3.95;1.58;;;14.40;99.20;;;;;;4986151;28;20026;-74
2023/07/22 03:24:28;;;;;;;2.35;1.50;;;14.40;99.20;;;;;;4989975;28;20023;-74
2023/07/22 03:26:53;;;;;;;4.65;1.52;;;14.30;99.30;;;;;;4991772;28;20022;-75
2023/07/22 03:29:19;;;;;;;2.50;1.38;;;14.30;99.30;;;;;;4989867;28;20477;-74
2023/07/22 03:31:44;;;;;;;4.68;1.95;;;14.30;99.40;;;;;;4985137;28;20059;-74
2023/07/22 03:34:10;;;;;;;2.15;1.35;;;14.30;99.50;;;;;;4987716;28;20022;-74
2023/07/22 03:36:36;;;;;;;3.80;1.75;;;14.30;99.60;;;;;;4985203;28;20676;-74
2023/07/22 03:39:02;;;;;;;2.75;1.58;;;14.20;99.70;;;;;;4991273;28;20037;-74
2023/07/22 03:41:28;;;;;;;2.83;1.45;;;14.20;99.80;;;;;;4988452;28;20102;-74
2023/07/22 03:43:54;;;;;;;3.97;1.77;;;14.20;99.90;;;;;;4993826;28;20141;-74
2023/07/22 03:46:19;;;;;;;2.53;1.70;;;14.20;99.90;;;;;;4993037;28;20033;-74
2023/07/22 03:48:45;;;;;;;2.63;1.27;;;14.10;99.90;;;;;;4992254;28;20536;-74
2023/07/22 03:51:10;;;;;;;3.63;1.70;;;14.10;99.90;;;;;;4995184;28;20687;-74
2023/07/22 03:53:36;;;;;;;2.65;1.70;;;14.00;99.90;;;;;;4993275;28;20030;-74
2023/07/22 03:56:02;;;;;;;3.83;1.90;;;14.00;99.90;;;;;;4991824;28;20073;-74
2023/07/22 03:58:28;;;;;;;2.40;1.38;;;14.00;99.90;;;;;;4989096;28;20027;-74
2023/07/22 04:00:53;;;;;;;1.85;1.30;;;14.00;99.90;;;;;;4989327;28;20105;-74
2023/07/22 04:03:19;;;;;;;2.95;1.63;;;14.00;99.90;;;;;;4990488;28;20023;-74
2023/07/22 04:05:44;;;;;;;2.65;1.27;;;13.90;99.90;;;;;;4992184;28;20029;-74
2023/07/22 04:08:10;;;;;;;3.50;1.83;;;14.00;99.90;;;;;;5002845;28;20022;-73
2023/07/22 04:10:35;;;;;;;3.05;1.60;;;13.90;99.90;;;;;;4993521;28;20029;-74
2023/07/22 04:13:01;;;;;;;2.35;1.60;;;14.00;99.90;;;;;;4984186;28;20074;-74
2023/07/22 04:15:27;;;;;;;4.75;1.48;;;14.00;99.90;;;;;;5016998;23;20129;-73
2023/07/22 04:17:52;;;;;;;3.42;1.77;;;13.90;99.90;;;;;;5003046;28;20029;-73
2023/07/22 04:20:18;;;;;;;6.88;1.77;;;13.90;99.90;;;;;;5001995;28;20168;-73
2023/07/22 04:22:43;;;;;;;4.30;1.52;;;14.00;99.90;;;;;;5002990;28;20103;-73
2023/07/22 04:25:09;;;;;;;4.18;1.52;;;14.00;99.90;;;;;;4990087;28;20033;-73
2023/07/22 04:27:35;;;;;;;3.63;1.80;;;14.00;99.90;;;;;;4989582;28;20041;-73
2023/07/22 04:30:00;;;;;;;3.17;1.60;;;14.00;99.90;;;;;;4989943;28;20458;-73
2023/07/22 04:32:26;;;;;;;3.92;1.80;;;14.00;99.90;;;;;;4990704;28;20046;-73
2023/07/22 04:34:52;;;;;;;3.45;1.70;;;14.00;99.90;;;;;;4985948;28;20248;-73
2023/07/22 04:37:18;;;;;;;3.55;1.67;;;14.00;99.90;;;;;;4987670;28;20511;-73
2023/07/22 04:39:48;;;;;;;2.47;1.50;;;14.10;99.90;;;;;;4988470;28;20058;-73
2023/07/22 04:42:13;;;;;;;4.38;1.88;;;14.10;99.90;;;;;;4985101;28;20030;-73
2023/07/22 04:44:40;;;;;;;3.53;1.75;;;14.10;99.90;;;;;;4991842;28;20045;-73
2023/07/22 04:47:06;;;;;;;6.85;1.70;;;14.20;99.90;;;;;;4982236;28;20027;-73
2023/07/22 04:49:32;;;;;;;3.58;1.90;;;14.20;99.90;;;;;;4980670;28;20381;-72
2023/07/22 04:51:57;;;;;;;6.65;2.00;;;14.30;99.90;;;;;;4992004;28;20028;-73
2023/07/22 04:54:23;;;;;;;4.53;1.80;;;14.30;99.90;;;;;;4985981;28;20026;-73
2023/07/22 04:56:48;;;;;;;3.63;1.90;;;14.30;99.90;;;;;;4987311;28;20085;-73
2023/07/22 04:59:15;;;;;;;3.97;1.80;;;14.40;99.90;;;;;;4989632;28;20030;-73
2023/07/22 05:01:40;;;;;;;3.65;1.70;;;14.40;99.90;;;;;;4988127;28;20104;-73
2023/07/22 05:04:06;;;;;;;4.63;2.05;;;14.50;99.90;;;;;;4982072;28;20081;-72
2023/07/22 05:06:32;;;;;;;3.25;2.00;;;14.60;99.90;;;;;;4984435;28;20503;-72
2023/07/22 05:08:58;;;;;;;5.20;2.58;;;14.70;99.90;;;;;;4981266;28;20716;-73
2023/07/22 05:11:23;;;;;;;3.60;2.10;;;14.80;99.90;;;;;;4982960;28;20030;-73
2023/07/22 05:13:49;;;;;;;4.10;2.03;;;14.90;99.90;;;;;;4986367;28;20030;-73
2023/07/22 05:16:15;;;;;;;6.00;2.42;;;15.00;99.90;;;;;;4991552;28;20030;-73
2023/07/22 05:18:40;;;;;;;5.22;3.25;;;15.10;99.90;;;;;;4982914;28;20030;-74
2023/07/22 05:21:06;;;;;;;6.30;2.83;;;15.30;99.90;;;;;;4988273;28;20090;-73
2023/07/22 05:23:32;;;;;;;4.38;2.35;;;15.30;99.90;;;;;;4991139;28;20030;-73
2023/07/22 05:25:57;;;;;;;3.67;2.35;;;15.40;99.90;;;;;;4991540;28;20495;-73
2023/07/22 05:28:23;;;;;;;6.32;2.65;;;15.50;99.80;;;;;;4979304;28;20026;-74
2023/07/22 05:30:48;;;;;;;4.05;2.67;;;15.60;99.60;;;;;;4988776;28;20023;-72
2023/07/22 05:33:14;;;;;;;3.67;2.53;;;15.70;99.30;;;;;;4989492;28;20034;-70
2023/07/22 05:35:39;;;;;;;5.80;2.03;;;15.80;99.40;;;;;;4991164;28;20026;-70
2023/07/22 05:38:05;;;;;;;5.53;2.58;;;15.90;99.20;;;;;;4994063;28;20033;-70
2023/07/22 05:40:31;;;;;;;5.18;2.50;;;16.00;99.00;;;;;;4989077;28;20038;-70
2023/07/22 05:42:57;;;;;;;3.58;2.15;;;16.10;98.80;;;;;;4986199;28;20069;-70
2023/07/22 05:45:23;;;;;;;4.10;2.33;;;16.20;98.60;;;;;;4992637;28;20508;-70
2023/07/22 05:47:48;;;;;;;5.95;2.28;;;16.30;98.30;;;;;;4980500;28;20039;-70
2023/07/22 05:50:14;;;;;;;4.22;2.13;;;16.40;98.10;;;;;;4980842;28;20093;-70
2023/07/22 05:52:40;;;;;;;4.03;2.15;;;16.50;98.00;;;;;;4978874;28;20065;-69
2023/07/22 05:55:05;;;;;;;4.35;2.45;;;16.60;97.80;;;;;;4976736;28;20398;-70
2023/07/22 05:57:31;;;;;;;3.17;2.35;;;16.70;97.50;;;;;;4988213;28;20057;-70
2023/07/22 05:59:57;;;;;;;4.35;2.67;;;16.70;97.50;;;;;;4977729;28;20062;-70
2023/07/22 06:02:22;;;;;;;10.05;5.53;;;16.80;97.30;;;;;;4985777;28;20042;-70
2023/07/22 06:04:48;;;;;;;4.72;2.83;;;16.80;97.20;;;;;;4983065;28;20503;-70
2023/07/22 06:07:13;;;;;;;3.10;2.25;;;16.90;97.20;;;;;;4979202;28;20531;-71
2023/07/22 06:09:39;;;;;;;4.60;2.40;;;17.00;97.00;;;;;;4986693;28;20061;-71
2023/07/22 06:12:05;;;;;;;3.05;2.30;;;17.10;96.80;;;;;;4988164;28;20500;-72
2023/07/22 06:14:31;;;;;;;3.83;2.55;;;17.10;96.70;;;;;;4988062;28;20045;-73
2023/07/22 06:16:57;;;;;;;4.88;2.40;;;17.20;96.60;;;;;;4986599;28;20412;-73
2023/07/22 06:19:23;;;;;;;3.45;1.60;;;17.30;96.30;;;;;;4989156;28;20030;-74
2023/07/22 06:21:49;;;;;;;3.33;1.98;;;17.30;96.30;;;;;;4991036;28;20018;-75
2023/07/22 06:24:15;;;;;;;3.60;2.20;;;17.30;96.20;;;;;;4986796;28;20030;-74
2023/07/22 06:26:41;;;;;;;6.22;2.53;;;17.40;96.30;;;;;;4989129;28;20026;-74
2023/07/22 06:29:07;;;;;;;4.80;2.17;;;17.40;96.40;;;;;;4987924;28;20030;-75
2023/07/22 06:31:32;;;;;;;3.45;2.20;;;17.60;96.30;;;;;;4984079;28;20030;-74
2023/07/22 06:33:59;;;;;;;4.88;2.33;;;17.60;96.30;;;;;;4981669;28;20026;-73
2023/07/22 06:36:25;;;;;;;4.70;2.10;;;17.60;96.00;;;;;;4984413;28;20033;-74
2023/07/22 06:38:51;;;;;;;3.20;2.10;;;17.70;95.90;;;;;;4990667;28;20030;-74
2023/07/22 06:41:17;;;;;;;4.45;2.38;;;17.80;95.70;;;;;;4987492;28;20037;-75
2023/07/22 06:43:43;;;;;;;5.50;2.35;;;17.80;95.60;;;;;;4981990;28;20038;-74
2023/07/22 06:46:09;;;;;;;5.88;2.20;;;17.90;95.60;;;;;;4980100;28;20037;-75
2023/07/22 06:48:34;;;;;;;5.00;2.17;;;17.90;95.50;;;;;;4982239;28;20045;-74
2023/07/22 06:51:00;;;;;;;4.28;1.88;;;18.00;95.40;;;;;;4979382;28;20388;-74
2023/07/22 06:53:25;;;;;;;2.58;1.77;;;18.00;95.30;;;;;;4982764;28;20117;-74
2023/07/22 06:55:52;;;;;;;5.00;2.30;;;18.10;95.20;;;;;;4986499;28;20397;-74
2023/07/22 06:58:22;;;;;;;3.22;1.92;;;18.10;95.00;;;;;;4985446;28;20141;-73
2023/07/22 07:00:52;;;;;;;2.80;1.50;;;18.20;94.90;;;;;;4988682;28;20018;-73
2023/07/22 07:03:17;;;;;;;4.63;2.00;;;18.20;94.90;;;;;;4987916;28;20381;-74
2023/07/22 07:05:43;;;;;;;4.47;1.95;;;18.30;94.90;;;;;;4989983;28;20033;-74
2023/07/22 07:08:10;;;;;;;3.67;2.03;;;18.30;94.90;;;;;;4987238;28;20023;-74
2023/07/22 07:10:41;;;;;;;3.25;1.83;;;18.40;94.70;;;;;;4991750;28;20042;-74
2023/07/22 07:13:09;;;;;;;3.13;1.95;;;18.50;94.70;;;;;;4989754;28;20038;-74
2023/07/22 07:15:34;;;;;;;4.32;1.77;;;18.50;94.80;;;;;;4988937;28;20080;-74
2023/07/22 07:18:00;;;;;;;3.08;1.50;;;18.70;94.60;;;;;;4991604;28;20030;-74
2023/07/22 07:20:26;;;;;;;3.03;1.60;;;18.80;94.30;;;;;;4991377;28;20092;-73
2023/07/22 07:22:51;;;;;;;3.35;1.75;;;18.90;94.30;;;;;;4990985;28;20061;-73
2023/07/22 07:25:17;;;;;;;2.40;1.77;;;18.90;94.10;;;;;;4989230;28;20489;-73
2023/07/22 07:27:43;;;;;;;3.55;1.88;;;19.00;94.20;;;;;;4988748;28;20027;-73
2023/07/22 07:30:09;;;;;;;4.78;1.48;;;19.10;94.10;;;;;;4986398;28;20026;-74
2023/07/22 07:32:36;;;;;;;2.63;1.60;;;19.10;93.50;;;;;;4984289;28;20420;-74
2023/07/22 07:35:02;;;;;;;3.00;1.70;;;19.20;93.60;;;;;;4988478;28;20026;-75
2023/07/22 07:37:28;;;;;;;2.00;1.23;;;19.20;93.60;;;;;;4986230;28;20034;-75
2023/07/22 07:39:59;;;;;;;2.80;1.40;;;19.30;93.30;;;;;;4988014;28;20029;-74
2023/07/22 07:42:28;;;;;;;2.38;1.13;;;19.40;92.40;;;;;;4989703;28;20049;-75
2023/07/22 07:44:54;;;;;;;2.33;1.50;;;19.50;92.10;;;;;;4988100;28;20068;-72
2023/07/22 07:47:20;;;;;;;2.38;1.27;;;19.50;92.10;;;;;;4984599;28;20038;-73
2023/07/22 07:49:46;;;;;;;3.03;1.63;;;19.60;91.70;;;;;;4985553;28;20061;-74
2023/07/22 07:52:11;;;;;;;3.10;1.58;;;19.80;91.50;;;;;;4988771;28;20066;-75
2023/07/22 07:54:37;;;;;;;3.88;1.10;;;19.80;91.20;;;;;;4993055;28;20033;-74
2023/07/22 07:57:03;;;;;;;3.55;1.23;;;20.00;90.60;;;;;;4988462;28;20077;-74
2023/07/22 07:59:28;;;;;;;2.90;1.45;;;20.10;90.50;;;;;;4989306;28;20037;-73
2023/07/22 08:01:54;;;;;;;2.13;1.20;;;20.20;90.10;;;;;;4993899;28;20447;-74
2023/07/22 08:04:20;;;;;;;3.53;1.35;;;20.30;89.30;;;;;;4990578;28;20030;-74
2023/07/22 08:06:45;;;;;;;1.63;1.20;;;20.40;88.10;;;;;;4989976;28;20083;-74
2023/07/22 08:09:16;;;;;;;3.05;1.10;;;20.50;87.20;;;;;;4990960;28;20030;-75
2023/07/22 08:11:41;;;;;;;2.78;1.17;;;20.70;86.60;;;;;;4988616;28;20104;-75
2023/07/22 08:14:08;;;;;;;2.10;1.00;;;20.80;85.90;;;;;;4992050;28;20500;-75
2023/07/22 08:16:33;;;;;;;3.47;1.20;;;20.80;85.50;;;;;;4990737;28;20050;-75
2023/07/22 08:18:59;;;;;;;2.90;1.45;;;20.90;85.60;;;;;;4991973;28;20073;-74
2023/07/22 08:21:24;;;;;;;3.05;1.35;;;21.00;85.60;;;;;;4991038;28;20573;-74
2023/07/22 08:23:50;;;;;;;3.15;1.63;;;21.10;86.00;;;;;;4988861;28;20030;-73
2023/07/22 08:26:20;;;;;;;2.33;1.10;;;21.10;84.90;;;;;;4993311;28;20108;-74
2023/07/22 08:28:46;;;;;;;2.97;1.48;;;21.20;83.80;;;;;;4985292;28;20169;-73
2023/07/22 08:31:12;;;;;;;2.95;1.52;;;21.30;83.50;;;;;;4984363;28;20101;-74
2023/07/22 08:33:38;;;;;;;2.42;1.42;;;21.40;82.80;;;;;;5007948;28;20623;-74
2023/07/22 08:36:03;;;;;;;3.30;1.33;;;21.50;82.10;;;;;;4990134;28;20202;-74
2023/07/22 08:38:29;;;;;;;2.38;1.05;;;21.60;82.00;;;;;;4990059;28;20385;-73
2023/07/22 08:40:55;;;;;;;2.00;1.25;;;21.60;81.70;;;;;;4995793;28;20096;-73
2023/07/22 08:43:22;;;;;;;1.58;1.10;;;21.70;80.80;;;;;;4993800;28;20030;-73
2023/07/22 08:45:50;;;;;;;2.08;1.38;;;21.70;78.80;;;;;;4983501;28;20108;-73
2023/07/22 08:48:18;;;;;;;3.03;1.50;;;21.80;77.60;;;;;;4995112;28;20029;-74
2023/07/22 08:50:54;;;;;;;2.15;1.20;;;21.70;76.80;;;;;;4985771;28;20022;-74
2023/07/22 08:53:20;;;;;;;3.80;1.17;;;21.70;76.40;;;;;;4988533;28;20038;-74
2023/07/22 08:55:47;;;;;;;2.20;1.20;;;21.70;76.40;;;;;;4991458;28;20345;-74
2023/07/22 08:58:14;;;;;;;1.83;1.15;;;21.80;75.80;;;;;;4984219;28;20026;-74
2023/07/22 09:00:39;;;;;;;2.15;1.15;;;21.80;74.60;;;;;;4992163;28;20384;-73
2023/07/22 09:03:06;;;;;;;4.22;1.15;;;21.80;74.60;;;;;;4991037;28;20109;-74
2023/07/22 09:05:33;;;;;;;4.65;2.90;;;21.90;73.30;;;;;;4989514;28;20026;-73
2023/07/22 09:08:02;;;;;;;2.13;1.58;;;22.00;72.70;;;;;;4989722;28;20393;-74
2023/07/22 09:10:28;;;;;;;2.45;1.35;;;22.10;72.90;;;;;;4987697;28;20449;-74
2023/07/22 09:12:55;;;;;;;2.30;1.10;;;22.30;73.60;;;;;;4988843;28;20019;-73
2023/07/22 09:15:21;;;;;;;2.10;1.35;;;22.40;73.40;;;;;;4980853;28;20046;-73
2023/07/22 09:17:47;;;;;;;1.70;0.98;;;22.50;73.40;;;;;;4993067;28;20109;-73
2023/07/22 09:20:14;;;;;;;2.80;1.08;;;22.50;73.10;;;;;;4991045;28;20033;-74
2023/07/22 09:22:47;;;;;;;4.82;1.30;;;22.60;71.40;;;;;;4995356;28;20026;-74
2023/07/22 09:25:16;;;;;;;;;;;22.70;70.80;;;;;;4989256;28;20019;-74
2023/07/22 09:27:42;;;;;;;1.98;1.08;;;22.70;70.20;;;;;;4990458;28;19910;-75
2023/07/22 09:30:21;;;;;;;3.15;1.05;;;22.80;70.70;;;;;;4990550;28;20413;-74
2023/07/22 09:32:46;;;;;;;1.85;0.90;;;22.80;70.60;;;;;;4989069;28;20238;-74
2023/07/22 09:35:12;;;;;;;4.40;1.33;;;22.80;70.70;;;;;;4991385;28;20022;-74
2023/07/22 09:37:38;;;;;;;1.90;0.98;;;22.90;71.00;;;;;;4988001;28;20473;-74
2023/07/22 09:40:33;;;;;;;2.13;1.08;;;22.90;70.10;;;;;;4988890;28;20141;-74
2023/07/22 09:43:02;;;;;;;2.42;1.20;;;23.00;70.20;;;;;;4974805;28;20085;-74
2023/07/22 09:45:30;;;;;;;3.35;1.00;;;23.10;70.40;;;;;;4991857;28;20041;-74
2023/07/22 09:47:56;;;;;;;2.15;1.20;;;23.10;70.00;;;;;;4986644;28;20546;-74
2023/07/22 09:50:24;;;;;;;2.45;1.20;;;23.20;70.30;;;;;;4990045;28;20508;-74
2023/07/22 09:52:53;;;;;;;1.95;1.23;;;23.30;69.30;;;;;;4992141;28;20057;-74
2023/07/22 09:55:24;;;;;;;2.97;1.42;;;23.40;69.10;;;;;;4987523;28;20042;-74
2023/07/22 09:57:53;;;;;;;1.27;0.85;;;23.40;68.20;;;;;;4989479;28;20121;-74
2023/07/22 10:00:19;;;;;;;2.15;1.20;;;23.60;66.60;;;;;;4993284;28;20121;-74
2023/07/22 10:02:49;;;;;;;2.17;1.40;;;23.70;67.30;;;;;;4990219;28;20026;-74
2023/07/22 10:05:17;;;;;;;3.17;1.58;;;23.80;66.90;;;;;;4993094;28;20069;-74
2023/07/22 10:07:47;;;;;;;1.85;1.33;;;23.80;66.70;;;;;;4990632;28;20022;-74
2023/07/22 10:10:16;;;;;;;1.23;1.00;;;23.80;66.90;;;;;;4995057;28;20492;-74
2023/07/22 10:12:42;;;;;;;1.75;1.20;;;23.80;67.30;;;;;;4990395;28;20085;-73
2023/07/22 10:15:11;;;;;;;2.00;1.27;;;23.70;67.90;;;;;;5011453;23;20037;-76
2023/07/22 10:17:36;;;;;;;1.98;1.30;;;23.70;68.20;;;;;;5002687;28;20502;-76
2023/07/22 10:20:07;;;;;;;2.95;1.05;;;23.70;68.60;;;;;;5002502;28;20050;-76
2023/07/22 10:22:37;;;;;;;1.98;1.17;;;23.80;68.60;;;;;;5001194;28;20074;-76
2023/07/22 10:25:07;;;;;;;2.35;1.02;;;23.80;68.40;;;;;;4991150;28;20117;-76
2023/07/22 10:27:35;;;;;;;3.28;1.52;;;23.90;68.50;;;;;;4986162;28;20036;-77
2023/07/22 10:30:01;;;;;;;4.25;1.50;;;24.00;68.40;;;;;;4987102;28;20030;-76
2023/07/22 10:32:45;;;;;;;5.03;1.95;;;24.00;68.80;;;;;;4986565;28;20049;-76
2023/07/22 10:35:12;;;;;;;;;;;24.10;68.20;;;;;;4987457;28;20153;-75
2023/07/22 10:37:41;;;;;;;4.30;1.52;;;24.20;67.80;;;;;;4993020;28;19909;-73
2023/07/22 10:40:29;;;;;;;2.20;1.20;;;24.30;67.30;;;;;;4988480;28;20026;-75
2023/07/22 10:43:06;;;;;;;3.33;1.02;;;24.40;67.40;;;;;;4999071;28;20089;-75
2023/07/22 10:45:42;;;;;;;3.25;1.42;;;24.50;67.10;;;;;;4982404;28;20022;-75
2023/07/22 10:48:10;;;;;;;2.33;1.25;;;24.60;66.50;;;;;;4988369;28;20181;-75
2023/07/22 10:50:57;;;;;;;2.22;1.05;;;24.80;65.10;;;;;;4987736;28;20034;-75
2023/07/22 10:53:25;;;;;;;2.50;1.15;;;24.80;65.10;;;;;;4985257;28;20060;-73
2023/07/22 10:56:12;;;;;;;2.63;1.30;;;24.80;65.30;;;;;;4989923;28;20073;-76
2023/07/22 10:58:47;;;;;;;2.17;1.33;;;24.90;65.40;;;;;;4986986;28;20534;-76
2023/07/22 11:01:27;;;;;;;1.98;1.40;;;25.00;64.70;;;;;;4986648;28;20040;-75
2023/07/22 11:04:12;;;;;;;2.00;1.30;;;25.00;64.70;;;;;;4988705;28;20030;-75
2023/07/22 11:06:59;;;;;;;1.67;1.40;;;25.00;64.40;;;;;;4990911;28;20022;-75
2023/07/22 11:09:36;;;;;;;2.10;1.20;;;25.00;64.50;;;;;;4983605;28;20018;-76
2023/07/22 11:12:16;;;;;;;5.00;1.90;;;25.00;64.60;;;;;;4986713;28;20037;-77
2023/07/22 11:14:50;;;;;;;2.72;1.23;;;25.00;64.00;;;;;;4982370;28;20034;-72
2023/07/22 11:17:17;;;;;;;1.40;1.27;;;25.00;64.10;;;;;;4978486;28;20026;-76
2023/07/22 11:19:49;;;;;;;2.83;1.30;;;25.00;64.30;;;;;;4989429;28;20376;-76
2023/07/22 11:22:15;;;;;;;1.98;1.38;;;25.10;64.40;;;;;;4989078;28;20109;-76
2023/07/22 11:24:43;;;;;;;2.95;1.65;;;25.10;63.30;;;;;;4990002;28;20504;-76
2023/07/22 11:27:09;;;;;;;1.98;1.23;;;25.00;63.50;;;;;;4987561;28;20201;-76
2023/07/22 11:29:36;;;;;;;2.65;1.60;;;25.00;64.00;;;;;;4985811;28;20029;-76
2023/07/22 11:32:05;;;;;;;2.60;1.30;;;24.90;63.60;;;;;;4987141;28;20033;-75
2023/07/22 11:34:33;;;;;;;3.28;1.67;;;24.90;63.80;;;;;;4989164;28;20050;-75
2023/07/22 11:37:02;;;;;;;3.17;1.58;;;24.80;63.80;;;;;;4990462;28;20027;-76
2023/07/22 11:39:31;;;;;;;2.38;1.30;;;24.90;63.50;;;;;;4990574;28;20074;-76
2023/07/22 11:42:09;;;;;;;1.88;1.23;;;24.80;63.30;;;;;;4990633;28;20362;-75
2023/07/22 11:44:36;;;;;;;2.33;1.30;;;24.80;63.50;;;;;;4981836;28;20031;-75
2023/07/22 11:47:03;;;;;;;2.10;1.67;;;24.80;63.70;;;;;;4999423;28;20041;-75
2023/07/22 11:49:33;;;;;;;3.50;1.85;;;25.00;63.80;;;;;;4988023;28;20023;-74
2023/07/22 11:52:10;;;;;;;3.13;1.63;;;25.00;63.30;;;;;;4990419;28;20100;-71
2023/07/22 11:54:38;;;;;;;1.75;1.27;;;25.10;63.30;;;;;;4991560;28;20073;-73
2023/07/22 11:57:21;;;;;;;2.83;1.38;;;25.10;63.20;;;;;;4983544;28;20077;-75
2023/07/22 11:59:57;;;;;;;3.58;1.80;;;25.10;63.20;;;;;;4978096;28;20051;-75
2023/07/22 12:02:25;;;;;;;1.75;1.35;;;25.20;63.30;;;;;;5002550;28;20040;-75
2023/07/22 12:04:56;;;;;;;5.35;1.65;;;25.20;62.60;;;;;;4994521;28;20030;-75
2023/07/22 12:07:26;;;;;;;4.05;1.45;;;25.20;62.10;;;;;;4996543;28;20076;-74
2023/07/22 12:10:01;;;;;;;3.92;1.80;;;25.20;61.90;;;;;;4981335;28;20511;-74
2023/07/22 12:12:53;;;;;;;2.08;1.30;;;25.20;62.30;;;;;;4986462;28;20113;-73
2023/07/22 12:15:20;;;;;;;2.55;2.00;;;25.30;62.20;;;;;;4985267;28;20038;-75
2023/07/22 12:18:00;;;;;;;3.65;1.98;;;25.30;61.90;;;;;;4995024;28;20117;-74
2023/07/22 12:20:35;;;;;;;2.00;1.38;;;25.40;61.30;;;;;;4993476;28;20035;-73
2023/07/22 12:23:14;;;;;;;1.38;1.23;;;25.40;60.00;;;;;;4989687;28;20034;-76
2023/07/22 12:25:43;;;;;;;3.45;1.60;;;25.50;60.20;;;;;;4992620;28;20101;-72
2023/07/22 12:28:10;;;;;;;3.03;1.75;;;25.50;60.10;;;;;;4995125;28;20026;-74
2023/07/22 12:30:36;;;;;;;3.10;1.83;;;25.50;59.90;;;;;;4994348;28;20078;-76
2023/07/22 12:33:08;;;;;;;2.30;1.40;;;25.50;60.00;;;;;;4994491;28;20031;-75
2023/07/22 12:35:33;;;;;;;3.05;1.85;;;25.50;60.40;;;;;;4992466;28;20319;-75
2023/07/22 12:38:02;;;;;;;1.95;1.35;;;25.50;60.00;;;;;;4991704;28;20813;-75
2023/07/22 12:40:30;;;;;;;2.30;1.60;;;25.50;60.20;;;;;;4995986;28;20069;-74
2023/07/22 12:43:05;;;;;;;2.17;1.40;;;25.40;59.80;;;;;;4994861;28;20030;-74
2023/07/22 12:45:30;;;;;;;2.17;1.52;;;25.50;60.50;;;;;;4992306;28;20029;-74
2023/07/22 12:48:02;;;;;;;3.60;1.55;;;25.40;60.20;;;;;;4992468;28;20027;-75
2023/07/22 12:50:29;;;;;;;2.50;1.80;;;25.50;60.20;;;;;;4992987;28;20026;-74